Time;durP1;ratioP1;P1;durP2;ratioP2;P2;SDS_P1;SDS_P2;PMS_P1;PMS_P2;Temp;Humidity;BMP_temperature;BMP_pressure;BME280_temperature;BME280_humidity;BME280_pressure;Samples;Min_cycle;Max_cycle;Signal;HPM_P1;HPM_P2
2022/12/04 00:01:39;;;;;;;1999.90;999.90;;;;;;;3.59;100.00;98249.50;5055372;28;20029;-75
2022/12/04 00:04:05;;;;;;;1999.90;999.90;;;;;;;3.61;100.00;98246.53;5066310;28;20437;-78
2022/12/04 00:06:32;;;;;;;1999.90;999.90;;;;;;;3.55;100.00;98261.84;5058206;28;20394;-75
2022/12/04 00:08:58;;;;;;;1999.90;999.90;;;;;;;3.55;100.00;98269.13;5048878;28;20048;-77
2022/12/04 00:11:26;;;;;;;1999.90;999.90;;;;;;;3.65;100.00;98277.44;5052657;28;20044;-76
2022/12/04 00:13:52;;;;;;;1999.90;999.90;;;;;;;3.63;100.00;98266.06;5053843;28;20029;-76
2022/12/04 00:16:21;;;;;;;1999.90;999.90;;;;;;;3.62;100.00;98269.81;5049442;28;20555;-76
2022/12/04 00:18:46;;;;;;;1999.90;999.90;;;;;;;3.56;100.00;98271.63;5049391;28;20033;-74
2022/12/04 00:21:14;;;;;;;1999.90;999.90;;;;;;;3.56;100.00;98271.63;5049988;28;20555;-76
2022/12/04 00:23:41;;;;;;;1999.90;999.90;;;;;;;3.56;100.00;98254.56;5047904;28;20116;-76
2022/12/04 00:26:13;;;;;;;1999.90;999.90;;;;;;;3.46;100.00;98255.19;5048181;28;20025;-76
2022/12/04 00:28:38;;;;;;;1999.90;999.90;;;;;;;3.54;100.00;98257.50;5046946;28;20023;-76
2022/12/04 00:31:06;;;;;;;1999.90;999.90;;;;;;;3.53;100.00;98249.63;5048190;28;20041;-76
2022/12/04 00:33:32;;;;;;;1999.90;999.90;;;;;;;3.52;100.00;98256.09;5050507;28;20485;-76
2022/12/04 00:36:02;;;;;;;1999.90;999.90;;;;;;;3.61;100.00;98265.47;5050300;28;20036;-76
2022/12/04 00:38:28;;;;;;;1999.90;999.90;;;;;;;3.62;100.00;98259.00;5052738;28;20021;-75
2022/12/04 00:40:53;;;;;;;1999.90;999.90;;;;;;;3.61;100.00;98258.16;5056042;28;20043;-79
2022/12/04 00:43:19;;;;;;;1999.90;999.90;;;;;;;3.69;100.00;98243.44;5053950;28;20025;-78
2022/12/04 00:45:45;;;;;;;1999.90;999.90;;;;;;;3.65;100.00;98250.41;5051195;28;20033;-75
2022/12/04 00:48:10;;;;;;;1999.90;999.90;;;;;;;3.63;100.00;98239.81;5051333;28;20175;-78
2022/12/04 00:50:36;;;;;;;1999.90;999.90;;;;;;;3.61;100.00;98257.34;5051205;28;20474;-77
2022/12/04 00:53:02;;;;;;;1999.90;999.90;;;;;;;3.55;100.00;98248.31;5051200;28;20452;-76
2022/12/04 00:55:28;;;;;;;1999.90;999.90;;;;;;;3.58;100.00;98239.72;5050784;28;20374;-76
2022/12/04 00:57:53;;;;;;;1999.90;999.90;;;;;;;3.60;100.00;98251.13;5050921;28;20028;-76
2022/12/04 01:00:18;;;;;;;1999.90;999.90;;;;;;;3.53;100.00;98250.47;5050567;28;20017;-77
2022/12/04 01:02:44;;;;;;;1999.90;999.90;;;;;;;3.55;100.00;98250.22;5051796;28;20104;-77
2022/12/04 01:05:10;;;;;;;1999.90;999.90;;;;;;;3.53;100.00;98252.34;5051669;28;20498;-75
2022/12/04 01:07:36;;;;;;;1999.90;999.90;;;;;;;3.59;100.00;98243.25;5052194;28;20037;-75
2022/12/04 01:10:03;;;;;;;1999.90;999.90;;;;;;;3.68;100.00;98234.50;5050589;28;20021;-76
2022/12/04 01:12:28;;;;;;;1999.90;999.90;;;;;;;3.66;100.00;98227.69;5051511;28;20028;-75
2022/12/04 01:14:53;;;;;;;1999.90;999.90;;;;;;;3.62;100.00;98216.56;5051790;28;20078;-76
2022/12/04 01:17:18;;;;;;;1999.90;999.90;;;;;;;3.55;100.00;98217.75;5050567;28;20032;-75
2022/12/04 01:19:44;;;;;;;1999.90;999.90;;;;;;;3.46;100.00;98221.94;5052123;28;20040;-75
2022/12/04 01:22:09;;;;;;;1999.90;999.90;;;;;;;3.49;100.00;98206.03;5050282;28;20025;-78
2022/12/04 01:24:34;;;;;;;1999.90;999.90;;;;;;;3.51;100.00;98198.50;5051534;28;20033;-76
2022/12/04 01:27:00;;;;;;;1999.90;999.90;;;;;;;3.55;100.00;98206.94;5050353;28;20031;-76
2022/12/04 01:29:25;;;;;;;1999.90;999.90;;;;;;;3.62;100.00;98205.72;5051789;28;20033;-79
2022/12/04 01:31:51;;;;;;;1999.90;999.90;;;;;;;3.59;100.00;98195.41;5050145;28;20036;-77
2022/12/04 01:34:16;;;;;;;1999.90;999.90;;;;;;;3.60;100.00;98204.34;5051284;28;20436;-76
2022/12/04 01:36:41;;;;;;;1999.90;999.90;;;;;;;3.63;100.00;98198.44;5051575;28;20053;-75
2022/12/04 01:39:07;;;;;;;1999.90;999.90;;;;;;;3.62;100.00;98199.50;5051380;28;20029;-78
2022/12/04 01:41:32;;;;;;;1999.90;999.90;;;;;;;3.57;100.00;98185.91;5051155;28;20033;-79
2022/12/04 01:44:21;;;;;;;1999.90;999.90;;;;;;;3.52;100.00;98185.81;5051382;28;20037;-78
2022/12/04 01:46:50;;;;;;;1999.90;999.90;;;;;;;3.54;100.00;98181.00;5050699;28;20135;-76
2022/12/04 01:49:42;;;;;;;1999.90;999.90;;;;;;;3.53;100.00;98185.56;5051043;28;20028;-79
2022/12/04 01:52:14;;;;;;;1999.90;999.90;;;;;;;3.52;100.00;98193.91;5048166;28;20448;-79
2022/12/04 01:54:43;;;;;;;1999.90;999.90;;;;;;;3.46;100.00;98181.38;5051206;28;20055;-79
2022/12/04 01:57:17;;;;;;;1999.90;999.90;;;;;;;3.51;100.00;98186.88;5051302;28;20040;-78
2022/12/04 01:59:48;;;;;;;1999.90;999.90;;;;;;;3.45;100.00;98182.44;5050987;28;20027;-77
2022/12/04 02:02:17;;;;;;;1999.90;999.90;;;;;;;3.46;100.00;98179.50;5051165;28;20060;-80
2022/12/04 02:04:43;;;;;;;1999.90;999.90;;;;;;;3.54;100.00;98187.19;5050847;28;20049;-77
2022/12/04 02:07:10;;;;;;;1999.90;999.90;;;;;;;3.45;100.00;98166.22;5049672;28;20035;-80
2022/12/04 02:09:38;;;;;;;1999.90;999.90;;;;;;;3.59;100.00;98157.56;5051241;28;20028;-76
2022/12/04 02:12:09;;;;;;;1999.90;999.90;;;;;;;3.53;100.00;98157.72;5050296;28;20397;-78
2022/12/04 02:15:00;;;;;;;1999.90;999.90;;;;;;;3.53;100.00;98152.31;5051013;28;20040;-77
2022/12/04 02:17:34;;;;;;;1999.90;999.90;;;;;;;3.54;100.00;98156.66;5042045;28;20067;-77
2022/12/04 02:20:17;;;;;;;1999.90;999.90;;;;;;;3.46;100.00;98155.16;5050753;28;20091;-76
2022/12/04 02:23:10;;;;;;;1999.90;999.90;;;;;;;3.51;100.00;98157.94;5050777;28;20028;-80
2022/12/04 02:25:46;;;;;;;1999.90;999.90;;;;;;;3.49;100.00;98159.25;5049832;28;20036;-78
2022/12/04 02:28:21;;;;;;;1999.90;999.90;;;;;;;3.55;100.00;98160.97;5050846;28;20025;-77
2022/12/04 02:30:49;;;;;;;1999.90;999.90;;;;;;;3.53;100.00;98152.31;5050562;28;20032;-78
2022/12/04 02:33:22;;;;;;;1999.90;999.90;;;;;;;3.53;100.00;98144.19;5049566;28;20033;-78
2022/12/04 02:35:59;;;;;;;1999.90;999.90;;;;;;;3.57;100.00;98143.44;5050729;28;20048;-79
2022/12/04 02:38:34;;;;;;;1999.90;999.90;;;;;;;3.62;100.00;98150.81;5050134;28;20090;-78
2022/12/04 02:41:52;;;;;;;1999.90;999.90;;;;;;;3.52;100.00;98159.59;5050698;28;20498;-76
2022/12/04 02:44:22;;;;;;;1999.90;999.90;;;;;;;3.52;100.00;98158.75;5038374;28;20040;-78
2022/12/04 02:46:53;;;;;;;1999.90;999.90;;;;;;;3.39;100.00;98140.16;5050510;28;20483;-76
2022/12/04 02:49:28;;;;;;;1999.90;999.90;;;;;;;3.32;100.00;98145.72;5052223;28;20474;-77
2022/12/04 02:51:56;;;;;;;1999.90;999.90;;;;;;;3.33;100.00;98138.44;5055150;28;20032;-77
2022/12/04 02:54:29;;;;;;;1999.90;999.90;;;;;;;3.34;100.00;98129.25;5052937;28;20028;-77
2022/12/04 02:56:55;;;;;;;1999.90;999.90;;;;;;;3.29;100.00;98137.31;5051261;28;20037;-80
2022/12/04 02:59:33;;;;;;;1999.90;999.90;;;;;;;3.31;100.00;98151.38;5050668;28;20052;-78
2022/12/04 03:02:06;;;;;;;1999.90;999.90;;;;;;;3.37;100.00;98155.81;5050895;28;20067;-77
2022/12/04 03:04:32;;;;;;;1999.90;999.90;;;;;;;3.37;100.00;98150.41;5050533;28;20041;-79
2022/12/04 03:07:10;;;;;;;1999.90;999.90;;;;;;;3.36;100.00;98148.75;5050378;28;20059;-77
2022/12/04 03:09:41;;;;;;;1999.90;999.90;;;;;;;3.40;100.00;98149.91;5050394;28;20052;-77
2022/12/04 03:12:17;;;;;;;1999.90;999.90;;;;;;;3.24;100.00;98128.03;5050395;28;20052;-76
2022/12/04 03:14:49;;;;;;;1999.90;999.90;;;;;;;3.27;100.00;98145.63;5049257;28;20485;-80
2022/12/04 03:17:26;;;;;;;1999.90;999.90;;;;;;;3.32;100.00;98126.78;5049117;28;20033;-77
2022/12/04 03:19:58;;;;;;;1999.90;999.90;;;;;;;3.38;100.00;98123.13;5050197;28;20444;-77
2022/12/04 03:22:26;;;;;;;1999.90;999.90;;;;;;;3.35;100.00;98128.22;5050121;28;20028;-78
2022/12/04 03:24:55;;;;;;;1999.90;999.90;;;;;;;3.32;100.00;98123.28;5050244;28;20033;-80
2022/12/04 03:27:36;;;;;;;1999.90;999.90;;;;;;;3.50;100.00;98120.34;5050905;28;20032;-77
2022/12/04 03:30:11;;;;;;;1999.90;999.90;;;;;;;3.49;100.00;98122.22;5049824;28;20037;-79
2022/12/04 03:32:58;;;;;;;1999.90;999.90;;;;;;;3.46;100.00;98120.00;5050198;28;20037;-78
2022/12/04 03:35:45;;;;;;;1999.90;999.90;;;;;;;3.59;100.00;98108.06;5050040;28;20037;-78
2022/12/04 03:38:15;;;;;;;1999.90;999.90;;;;;;;3.55;100.00;98099.59;5049920;28;20025;-75
2022/12/04 03:40:48;;;;;;;1999.90;999.90;;;;;;;3.44;100.00;98118.63;5049953;28;20040;-78
2022/12/04 03:43:28;;;;;;;1999.90;999.90;;;;;;;3.49;100.00;98118.69;5049576;28;20036;-77
2022/12/04 03:45:58;;;;;;;1999.90;999.90;;;;;;;3.50;100.00;98106.81;5047077;28;21615;-75
2022/12/04 03:48:49;;;;;;;1999.90;999.90;;;;;;;3.49;100.00;98119.53;5049106;28;20551;-75
2022/12/04 03:51:25;;;;;;;1999.90;999.90;;;;;;;3.46;100.00;98108.38;5032232;28;20056;-77
2022/12/04 03:54:24;;;;;;;1999.90;999.90;;;;;;;3.53;100.00;98109.03;5032223;28;20079;-75
2022/12/04 03:56:58;;;;;;;1999.90;999.90;;;;;;;3.47;100.00;98120.84;5034233;28;20064;-74
2022/12/04 03:59:34;;;;;;;1999.90;999.90;;;;;;;3.56;100.00;98113.94;5036208;28;20036;-76
2022/12/04 04:02:02;;;;;;;1999.90;999.90;;;;;;;3.55;100.00;98115.84;5038542;28;20025;-77
2022/12/04 04:04:34;;;;;;;1999.90;999.90;;;;;;;3.60;100.00;98104.28;5048927;28;20037;-76
2022/12/04 04:07:41;;;;;;;1999.90;999.90;;;;;;;3.53;100.00;98099.03;5037130;28;20071;-75
2022/12/04 04:10:12;;;;;;;1999.90;999.90;;;;;;;3.59;100.00;98099.94;5045265;28;20182;-75
2022/12/04 04:12:44;;;;;;;1999.90;999.90;;;;;;;3.44;100.00;98091.59;5052979;28;20468;-77
2022/12/04 04:26:38;;;;;;;1999.90;999.90;;;;;;;3.46;100.00;98105.66;5032709;28;20032;-75
2022/12/04 04:29:03;;;;;;;1999.90;999.90;;;;;;;3.47;100.00;98110.03;5032474;28;20047;-76
2022/12/04 04:31:52;;;;;;;1999.90;999.90;;;;;;;3.52;100.00;98104.69;5034084;28;20029;-76
2022/12/04 04:34:37;;;;;;;1999.90;999.90;;;;;;;3.59;100.00;98103.47;5049282;28;20073;-74
2022/12/04 04:37:02;;;;;;;1999.90;999.90;;;;;;;3.61;100.00;98111.31;5052070;28;20036;-74
2022/12/04 04:39:38;;;;;;;1999.90;999.90;;;;;;;3.55;100.00;98107.72;5052253;28;20037;-75
2022/12/04 04:42:12;;;;;;;1999.90;999.90;;;;;;;3.46;100.00;98108.38;5052063;28;20044;-76
2022/12/04 04:44:45;;;;;;;1999.90;999.90;;;;;;;3.38;100.00;98122.31;5050573;28;20033;-76
2022/12/04 04:47:24;;;;;;;1999.90;999.90;;;;;;;3.47;100.00;98112.72;5051978;28;20024;-74
2022/12/04 04:49:50;;;;;;;1999.90;999.90;;;;;;;3.58;100.00;98112.63;5052046;28;20060;-79
2022/12/04 04:52:21;;;;;;;1999.90;999.90;;;;;;;3.55;100.00;98131.22;5052072;28;20043;-79
2022/12/04 04:54:46;;;;;;;1999.90;999.90;;;;;;;3.55;100.00;98126.66;5052258;28;20025;-75
2022/12/04 04:57:12;;;;;;;1999.90;999.90;;;;;;;3.60;100.00;98131.34;5052554;28;20035;-75
2022/12/04 04:59:37;;;;;;;1999.90;999.90;;;;;;;3.59;100.00;98121.56;5050467;28;21539;-75
2022/12/04 05:02:03;;;;;;;1999.90;999.90;;;;;;;3.51;100.00;98124.69;5056661;28;20025;-79
2022/12/04 05:04:28;;;;;;;1999.90;999.90;;;;;;;3.61;100.00;98119.44;5054427;28;20488;-75
2022/12/04 05:06:53;;;;;;;1999.90;999.90;;;;;;;3.58;100.00;98112.63;5051594;28;20111;-78
2022/12/04 05:09:19;;;;;;;1999.90;999.90;;;;;;;3.59;100.00;98117.00;5051257;28;20036;-75
2022/12/04 05:11:45;;;;;;;1999.90;999.90;;;;;;;3.58;100.00;98118.03;5050114;28;20123;-76
2022/12/04 05:14:11;;;;;;;1999.90;999.90;;;;;;;3.60;100.00;98120.50;5051290;28;20489;-77
2022/12/04 05:16:37;;;;;;;1999.90;999.90;;;;;;;3.52;100.00;98110.09;5051235;28;20116;-75
2022/12/04 05:21:48;;;;;;;1999.90;999.90;;;;;;;3.52;100.00;98112.81;5051449;28;20028;-76
2022/12/04 05:24:13;;;;;;;1999.90;999.90;;;;;;;3.47;100.00;98096.50;5051291;28;20120;-75
2022/12/04 05:26:39;;;;;;;1999.90;999.90;;;;;;;3.44;100.00;98111.34;5051116;28;20033;-75
2022/12/04 05:29:04;;;;;;;1999.90;999.90;;;;;;;3.52;100.00;98118.22;5051237;28;20028;-76
2022/12/04 05:31:29;;;;;;;1999.90;999.90;;;;;;;3.49;100.00;98116.00;5049810;28;20021;-75
2022/12/04 05:33:55;;;;;;;1999.90;999.90;;;;;;;3.50;100.00;98112.22;5050927;28;20055;-75
2022/12/04 05:36:20;;;;;;;1999.90;999.90;;;;;;;3.54;100.00;98116.88;5051209;28;20036;-76
2022/12/04 05:38:46;;;;;;;1999.90;999.90;;;;;;;3.62;100.00;98123.78;5051568;28;20036;-74
2022/12/04 05:41:11;;;;;;;1999.90;999.90;;;;;;;3.56;100.00;98125.59;5051196;28;20036;-75
2022/12/04 05:43:36;;;;;;;1999.90;999.90;;;;;;;3.65;100.00;98112.47;5051233;28;20036;-75
2022/12/04 05:46:04;;;;;;;1999.90;999.90;;;;;;;3.64;100.00;98106.22;5049921;28;20030;-74
2022/12/04 05:48:30;;;;;;;1999.90;999.90;;;;;;;3.70;100.00;98099.00;5051240;28;20053;-74
2022/12/04 05:50:55;;;;;;;1999.90;999.90;;;;;;;3.74;100.00;98105.56;5051876;28;20060;-76
2022/12/04 05:53:21;;;;;;;1999.90;999.90;;;;;;;3.68;100.00;98099.28;5051244;28;20036;-75
2022/12/04 05:55:54;;;;;;;1999.90;999.90;;;;;;;3.73;100.00;98088.53;5051127;28;20020;-74
2022/12/04 05:58:19;;;;;;;1999.90;999.90;;;;;;;3.69;100.00;98092.00;5051373;28;20390;-76
2022/12/04 06:00:44;;;;;;;1999.90;999.90;;;;;;;3.60;100.00;98090.78;5051031;28;20025;-75
2022/12/04 06:03:10;;;;;;;1999.90;999.90;;;;;;;3.65;100.00;98112.47;5049726;28;20473;-75
2022/12/04 06:05:35;;;;;;;1999.90;999.90;;;;;;;3.56;100.00;98103.97;5050788;28;20497;-75
2022/12/04 06:08:00;;;;;;;1999.90;999.90;;;;;;;3.54;100.00;98122.28;5050873;28;20390;-74
2022/12/04 06:10:27;;;;;;;1999.90;999.90;;;;;;;3.50;100.00;98098.72;5050777;28;20052;-75
2022/12/04 06:12:56;;;;;;;1999.90;999.90;;;;;;;3.64;100.00;98097.31;5049858;28;20056;-76
2022/12/04 06:15:22;;;;;;;1999.90;999.90;;;;;;;3.50;100.00;98093.31;5051030;28;20112;-76
2022/12/04 06:17:47;;;;;;;1999.90;999.90;;;;;;;3.59;100.00;98106.16;5050762;28;20041;-78
2022/12/04 06:20:12;;;;;;;1999.90;999.90;;;;;;;3.48;100.00;98096.25;5050411;28;20036;-75
2022/12/04 06:22:38;;;;;;;1999.90;999.90;;;;;;;3.51;100.00;98098.44;5050574;28;20036;-76
2022/12/04 06:25:04;;;;;;;1999.90;999.90;;;;;;;3.54;100.00;98089.06;5050632;28;20021;-75
2022/12/04 06:27:29;;;;;;;1999.90;999.90;;;;;;;3.56;100.00;98092.31;5050806;28;20037;-75
2022/12/04 06:29:54;;;;;;;1999.90;999.90;;;;;;;3.47;100.00;98088.41;5050649;28;20490;-75
2022/12/04 06:32:20;;;;;;;1999.90;999.90;;;;;;;3.46;100.00;98084.03;5049253;28;20063;-75
2022/12/04 06:34:50;;;;;;;1999.90;999.90;;;;;;;3.54;100.00;98089.84;5049206;28;20025;-75
2022/12/04 06:37:15;;;;;;;1999.90;999.90;;;;;;;3.55;100.00;98096.91;5050508;28;20029;-75
2022/12/04 06:39:41;;;;;;;1999.90;999.90;;;;;;;3.54;100.00;98094.47;5049979;28;20425;-76
2022/12/04 06:42:06;;;;;;;1999.90;999.90;;;;;;;3.55;100.00;98093.38;5048696;28;20025;-76
2022/12/04 06:44:31;;;;;;;1999.90;999.90;;;;;;;3.45;100.00;98087.81;5050251;28;20501;-74
2022/12/04 06:46:56;;;;;;;1999.90;999.90;;;;;;;3.51;100.00;98100.38;5050456;28;20044;-76
2022/12/04 06:49:24;;;;;;;1999.90;999.90;;;;;;;3.62;100.00;98107.56;5050224;28;20478;-75
2022/12/04 06:51:49;;;;;;;1999.90;999.90;;;;;;;3.58;100.00;98112.63;5050337;28;20045;-77
2022/12/04 06:54:14;;;;;;;1999.90;999.90;;;;;;;3.60;100.00;98107.00;5048737;28;20082;-76
2022/12/04 06:56:40;;;;;;;1999.90;999.90;;;;;;;3.64;100.00;98108.94;5050554;28;20491;-75
2022/12/04 06:59:05;;;;;;;1999.90;999.90;;;;;;;3.64;100.00;98108.13;5050188;28;20025;-75
2022/12/04 07:01:32;;;;;;;1999.90;999.90;;;;;;;3.74;100.00;98105.56;5050198;28;20071;-75
2022/12/04 07:03:59;;;;;;;1999.90;999.90;;;;;;;3.65;100.00;98096.25;5050338;28;20036;-75
2022/12/04 07:06:28;;;;;;;1999.90;999.90;;;;;;;3.65;100.00;98113.28;5050415;28;20458;-76
2022/12/04 07:08:57;;;;;;;1999.90;999.90;;;;;;;3.68;100.00;98112.81;5050240;28;20159;-75
2022/12/04 07:11:24;;;;;;;1999.90;999.90;;;;;;;3.73;100.00;98103.94;5053330;28;20021;-76
2022/12/04 07:13:50;;;;;;;1999.90;999.90;;;;;;;3.65;100.00;98107.06;5053283;28;20486;-76
2022/12/04 07:16:19;;;;;;;1999.90;999.90;;;;;;;3.71;100.00;98111.47;5050109;28;20029;-77
2022/12/04 07:18:45;;;;;;;1999.90;999.90;;;;;;;3.70;100.00;98101.72;5050101;28;20374;-75
2022/12/04 07:21:14;;;;;;;1999.90;999.90;;;;;;;3.68;100.00;98107.38;5049933;28;20021;-76
2022/12/04 07:23:40;;;;;;;1999.90;999.90;;;;;;;3.61;100.00;98105.91;5051613;28;20036;-75
2022/12/04 07:26:09;;;;;;;1999.90;999.90;;;;;;;3.68;100.00;98111.97;5054214;28;20037;-75
2022/12/04 07:28:35;;;;;;;1999.90;999.90;;;;;;;3.71;100.00;98117.72;5053875;28;20025;-75
2022/12/04 07:31:06;;;;;;;1999.90;999.90;;;;;;;3.65;100.00;98112.47;5060347;28;20036;-86
2022/12/04 07:33:32;;;;;;;1999.90;999.90;;;;;;;3.66;100.00;98108.72;5067550;28;20037;-78
2022/12/04 07:35:59;;;;;;;1999.90;999.90;;;;;;;3.73;100.00;98109.34;5053398;28;20055;-75
2022/12/04 07:38:24;;;;;;;1999.90;999.90;;;;;;;3.76;100.00;98125.06;5049231;28;20406;-74
2022/12/04 07:40:50;;;;;;;1999.90;999.90;;;;;;;3.66;100.00;98114.13;5048591;28;20054;-75
2022/12/04 07:43:15;;;;;;;1999.90;999.90;;;;;;;3.78;100.00;98122.94;5051795;28;20493;-76
2022/12/04 07:45:41;;;;;;;1999.90;999.90;;;;;;;3.76;100.00;98120.47;5033279;28;20026;-74
2022/12/04 07:48:06;;;;;;;1999.90;999.90;;;;;;;3.78;100.00;98133.78;5033389;28;20051;-74
2022/12/04 07:50:32;;;;;;;1999.90;999.90;;;;;;;3.78;100.00;98122.94;5051786;28;20036;-74
2022/12/04 07:52:57;;;;;;;1999.90;999.90;;;;;;;3.85;100.00;98133.59;5053252;28;20025;-77
2022/12/04 07:55:22;;;;;;;1999.90;999.90;;;;;;;3.90;100.00;98134.50;5052985;28;20023;-75
2022/12/04 07:57:47;;;;;;;1999.90;999.90;;;;;;;3.98;100.00;98138.69;5053629;28;20025;-75
2022/12/04 08:00:13;;;;;;;1999.90;999.90;;;;;;;3.71;100.00;98112.31;5053119;28;20033;-75
2022/12/04 08:02:39;;;;;;;1999.90;999.90;;;;;;;3.85;100.00;98141.72;5052715;28;20044;-75
2022/12/04 08:05:04;;;;;;;1999.90;999.90;;;;;;;3.83;100.00;98125.72;5052590;28;20041;-78
2022/12/04 08:07:31;;;;;;;1999.90;999.90;;;;;;;3.87;100.00;98124.16;5053681;28;20408;-77
2022/12/04 08:09:56;;;;;;;1999.90;999.90;;;;;;;3.86;100.00;98130.63;5053864;28;20039;-76
2022/12/04 08:12:22;;;;;;;1999.90;999.90;;;;;;;3.92;100.00;98129.66;5052270;28;20029;-75
2022/12/04 08:14:48;;;;;;;1999.90;999.90;;;;;;;3.79;100.00;98119.97;5045283;28;20544;-85
2022/12/04 08:17:13;;;;;;;1999.90;999.90;;;;;;;3.94;100.00;98132.94;5052445;28;20029;-77
2022/12/04 08:19:39;;;;;;;1999.90;999.90;;;;;;;3.97;100.00;98132.44;5032996;28;20040;-76
2022/12/04 08:22:04;;;;;;;1999.90;999.90;;;;;;;3.87;100.00;98115.22;5032321;28;20520;-76
2022/12/04 08:24:29;;;;;;;1999.90;999.90;;;;;;;3.82;100.00;98113.28;5030957;28;20029;-75
2022/12/04 08:26:55;;;;;;;1999.90;999.90;;;;;;;3.83;100.00;98124.91;5032679;28;20115;-75
2022/12/04 08:29:20;;;;;;;1999.90;999.90;;;;;;;3.80;100.00;98131.63;5032453;28;20025;-75
2022/12/04 08:31:45;;;;;;;1999.90;999.90;;;;;;;3.83;100.00;98119.50;5033656;28;20125;-75
2022/12/04 08:34:11;;;;;;;1999.90;999.90;;;;;;;3.78;100.00;98122.94;5030379;28;20485;-76
2022/12/04 08:36:36;;;;;;;1999.90;999.90;;;;;;;3.83;100.00;98130.31;5031694;28;20028;-75
2022/12/04 08:39:02;;;;;;;1999.90;999.90;;;;;;;3.73;100.00;98103.94;5038798;28;20075;-75
2022/12/04 08:41:27;;;;;;;1999.90;999.90;;;;;;;3.84;100.00;98130.06;5052506;28;20071;-75
2022/12/04 08:43:54;;;;;;;1999.90;999.90;;;;;;;3.85;100.00;98137.13;5052012;28;20025;-75
2022/12/04 08:46:20;;;;;;;1999.90;999.90;;;;;;;3.81;100.00;98137.88;5051926;28;20029;-76
2022/12/04 08:48:46;;;;;;;1999.90;999.90;;;;;;;3.84;100.00;98140.91;5051688;28;20021;-74
2022/12/04 08:51:20;;;;;;;1999.90;999.90;;;;;;;3.90;100.00;98145.31;5051565;28;20534;-76
2022/12/04 08:53:46;;;;;;;1999.90;999.90;;;;;;;3.87;100.00;98137.69;5050045;28;20053;-74
2022/12/04 08:56:12;;;;;;;1999.90;999.90;;;;;;;3.91;100.00;98132.63;5052316;28;20060;-75
2022/12/04 08:58:38;;;;;;;1999.90;999.90;;;;;;;3.93;100.00;98135.88;5050692;28;20021;-77
2022/12/04 09:01:06;;;;;;;1999.90;999.90;;;;;;;4.01;100.00;98141.69;5050846;28;20024;-75
2022/12/04 09:03:31;;;;;;;1999.90;999.90;;;;;;;4.03;100.00;98141.44;5050249;28;20029;-78
2022/12/04 09:06:00;;;;;;;1999.90;999.90;;;;;;;4.02;100.00;98135.22;5048825;28;20379;-74
2022/12/04 09:08:26;;;;;;;1999.90;999.90;;;;;;;4.08;100.00;98155.84;5047683;28;20045;-77
2022/12/04 09:10:51;;;;;;;1999.90;999.90;;;;;;;4.06;100.00;98160.72;5050241;28;20057;-76
2022/12/04 09:13:17;;;;;;;1999.90;999.90;;;;;;;4.18;100.00;98161.44;5048858;28;20035;-77
2022/12/04 09:15:42;;;;;;;1999.90;999.90;;;;;;;4.11;100.00;98149.94;5049153;28;20017;-76
2022/12/04 09:18:08;;;;;;;1999.90;999.90;;;;;;;4.09;100.00;98152.09;5046463;28;20057;-77
2022/12/04 09:20:35;;;;;;;1999.90;999.90;;;;;;;4.16;100.00;98155.44;5050973;28;20918;-79
2022/12/04 09:23:01;;;;;;;1999.90;999.90;;;;;;;4.10;100.00;98150.22;5057312;28;20523;-78
2022/12/04 09:25:27;;;;;;;1999.90;999.90;;;;;;;4.08;100.00;98158.56;5054608;28;20082;-79
2022/12/04 09:27:52;;;;;;;1999.90;999.90;;;;;;;4.02;100.00;98156.84;5052209;28;20016;-89
2022/12/04 09:30:18;;;;;;;1999.90;999.90;;;;;;;4.06;100.00;98173.41;5050287;28;20108;-77
2022/12/04 09:32:43;;;;;;;1999.90;999.90;;;;;;;4.12;100.00;98165.13;5050719;28;20033;-77
2022/12/04 09:35:09;;;;;;;1999.90;999.90;;;;;;;4.15;100.00;98161.94;5051709;28;20108;-76
2022/12/04 09:37:35;;;;;;;1999.90;999.90;;;;;;;4.07;100.00;98165.03;5049598;28;20051;-76
2022/12/04 09:40:02;;;;;;;1999.90;999.90;;;;;;;4.25;100.00;98159.38;5051125;28;20013;-76
2022/12/04 09:42:41;;;;;;;1999.90;999.90;;;;;;;4.27;100.00;98156.41;5050403;28;20044;-76
2022/12/04 09:45:17;;;;;;;1999.90;999.90;;;;;;;4.19;100.00;98141.41;5048378;28;20029;-77
2022/12/04 09:47:49;;;;;;;1999.90;999.90;;;;;;;4.19;100.00;98127.88;5048684;28;20033;-78
2022/12/04 09:50:22;;;;;;;1999.90;999.90;;;;;;;4.40;100.00;98145.22;5050108;28;20013;-76
2022/12/04 09:52:59;;;;;;;1999.90;999.90;;;;;;;4.98;100.00;98139.13;5052935;28;20040;-79
2022/12/04 09:55:31;;;;;;;1999.90;999.90;;;;;;;4.97;100.00;98140.22;5048175;28;20033;-77
2022/12/04 09:58:00;;;;;;;1999.90;999.90;;;;;;;4.95;100.00;98123.38;5052806;28;20036;-79
2022/12/04 10:00:28;;;;;;;1999.90;999.90;;;;;;;5.22;100.00;98147.78;5050094;28;20031;-78
2022/12/04 10:03:02;;;;;;;1999.90;999.90;;;;;;;5.34;100.00;98140.31;5047536;28;20025;-75
2022/12/04 10:05:33;;;;;;;1999.90;999.90;;;;;;;5.09;100.00;98148.19;5049269;28;20041;-79
2022/12/04 10:08:17;;;;;;;1999.90;999.90;;;;;;;5.21;100.00;98143.41;5049296;28;20082;-77
2022/12/04 10:11:02;;;;;;;1999.90;999.90;;;;;;;5.34;100.00;98137.59;5049536;28;20126;-78
2022/12/04 10:13:52;;;;;;;1999.90;999.90;;;;;;;5.56;100.00;98146.47;5050585;28;20474;-78
2022/12/04 10:16:37;;;;;;;1999.90;999.90;;;;;;;5.49;100.00;98145.03;5049103;28;20124;-77
2022/12/04 10:19:32;;;;;;;1999.90;999.90;;;;;;;5.67;100.00;98142.75;5050991;28;20032;-81
2022/12/04 10:22:15;;;;;;;1999.90;999.90;;;;;;;5.34;100.00;98141.13;5051573;28;20032;-76
2022/12/04 10:24:48;;;;;;;1999.90;999.90;;;;;;;5.11;100.00;98136.00;5050550;28;20060;-76
2022/12/04 10:27:24;;;;;;;1999.90;999.90;;;;;;;5.04;100.00;98138.13;5049247;28;20021;-78
2022/12/04 10:29:56;;;;;;;1999.90;999.90;;;;;;;4.97;100.00;98136.66;5050144;28;20032;-76
2022/12/04 10:32:28;;;;;;;1999.90;999.90;;;;;;;4.75;100.00;98136.69;5051083;28;20029;-80
2022/12/04 10:34:57;;;;;;;1999.90;999.90;;;;;;;4.66;100.00;98121.97;5050565;28;20017;-82
2022/12/04 10:37:24;;;;;;;1999.90;999.90;;;;;;;4.64;100.00;98115.97;5055460;28;20021;-82
2022/12/04 10:40:17;;;;;;;1999.90;999.90;;;;;;;4.67;100.00;98121.69;5049377;28;20025;-84
2022/12/04 10:42:52;;;;;;;1999.90;999.90;;;;;;;4.63;100.00;98108.94;5065797;28;20040;-86
2022/12/04 10:45:19;;;;;;;1999.90;999.90;;;;;;;4.64;100.00;98115.97;5055903;28;20032;-84
2022/12/04 10:47:48;;;;;;;1999.90;999.90;;;;;;;4.64;100.00;98121.38;5058460;28;20041;-83
2022/12/04 10:50:17;;;;;;;1999.90;999.90;;;;;;;4.55;100.00;98107.47;5066253;28;20525;-80
2022/12/04 10:52:43;;;;;;;1999.90;999.90;;;;;;;4.53;100.00;98108.81;5072751;28;20045;-83
2022/12/04 10:55:09;;;;;;;1999.90;999.90;;;;;;;4.48;100.00;98106.06;5061127;28;20025;-83
2022/12/04 10:57:34;;;;;;;1999.90;999.90;;;;;;;4.54;100.00;98116.66;5050750;28;20055;-76
2022/12/04 11:00:23;;;;;;;1999.90;999.90;;;;;;;4.58;100.00;98114.28;5052668;28;20083;-75
2022/12/04 11:02:50;;;;;;;1999.90;999.90;;;;;;;4.54;100.00;98119.38;5053893;28;20147;-76
2022/12/04 11:05:28;;;;;;;1999.90;999.90;;;;;;;4.58;100.00;98119.69;5053634;28;20037;-74
2022/12/04 11:07:54;;;;;;;1999.90;999.90;;;;;;;4.54;100.00;98105.84;5052384;28;20120;-75
2022/12/04 11:10:31;;;;;;;1999.90;999.90;;;;;;;4.52;100.00;98107.16;5053861;28;20021;-77
2022/12/04 11:13:15;;;;;;;1999.90;999.90;;;;;;;4.60;100.00;98109.44;5053021;28;20049;-75
2022/12/04 11:15:46;;;;;;;1999.90;999.90;;;;;;;4.58;100.00;98098.03;5053135;28;20025;-79
2022/12/04 11:18:17;;;;;;;1999.90;999.90;;;;;;;4.54;100.00;98094.22;5052284;28;20501;-75
2022/12/04 11:20:49;;;;;;;1999.90;999.90;;;;;;;4.56;100.00;98087.47;5052253;28;20103;-76